Time;durP1;ratioP1;P1;durP2;ratioP2;P2;SDS_P1;SDS_P2;PMS_P1;PMS_P2;Temp;Humidity;BMP_temperature;BMP_pressure;BME280_temperature;BME280_humidity;BME280_pressure;Samples;Min_cycle;Max_cycle;Signal;HPM_P1;HPM_P2
2021/12/20 00:00:41;;;;;;;6.75;5.30;;;;;;;5.92;82.10;101663.00;4769198;30;20051;-68
2021/12/20 00:03:45;;;;;;;9.10;4.60;;;;;;;5.75;83.71;101645.09;4768995;30;20507;-68
2021/12/20 00:06:48;;;;;;;8.95;6.70;;;;;;;5.67;84.02;101647.78;4768851;30;20423;-68
2021/12/20 00:09:52;;;;;;;8.02;5.93;;;;;;;5.75;83.48;101645.09;4768978;30;20104;-68
2021/12/20 00:12:55;;;;;;;12.52;7.43;;;;;;;6.00;83.00;101649.06;4769244;30;20466;-68
2021/12/20 00:15:58;;;;;;;9.65;6.82;;;;;;;6.03;82.04;101638.63;4769172;30;20144;-68
2021/12/20 00:19:01;;;;;;;;;;;;;;;6.06;82.21;101640.31;4769082;30;20085;-68
2021/12/20 00:22:05;;;;;;;9.70;5.75;;;;;;;6.03;82.11;101642.94;4760654;30;19964;-68
2021/12/20 00:25:08;;;;;;;9.25;5.07;;;;;;;6.01;82.24;101648.19;4751249;30;20592;-68
2021/12/20 00:28:11;;;;;;;;;;;;;;;5.89;82.50;101643.13;4751477;30;20148;-68
2021/12/20 00:31:14;;;;;;;9.57;5.57;;;;;;;5.99;82.36;101644.72;4751064;30;20036;-68
2021/12/20 00:34:17;;;;;;;7.63;5.55;;;;;;;5.94;82.96;101640.53;4761366;30;20133;-68
2021/12/20 00:40:43;;;;;;;8.18;5.35;;;;;;;6.08;81.78;101635.94;4751135;30;19933;-68
2021/12/20 00:43:46;;;;;;;;;;;;;;;6.01;81.65;101637.78;4751501;30;20129;-68
2021/12/20 00:46:50;;;;;;;8.98;6.22;;;;;;;6.11;81.47;101633.31;4750941;30;19929;-68
2021/12/20 00:49:53;;;;;;;;;;;;;;;6.22;81.51;101641.78;4751351;30;20097;-68
2021/12/20 00:52:57;;;;;;;8.93;5.43;;;;;;;6.19;81.56;101631.47;4750989;30;19961;-68
2021/12/20 00:56:00;;;;;;;10.70;6.18;;;;;;;6.22;81.83;101636.59;4751273;30;20051;-68
2021/12/20 00:59:04;;;;;;;8.15;5.53;;;;;;;6.01;82.24;101626.56;4750847;30;20101;-68
2021/12/20 01:02:07;;;;;;;11.15;6.07;;;;;;;5.91;82.97;101630.16;4760235;30;20106;-68
2021/12/20 01:05:11;;;;;;;8.57;4.75;;;;;;;5.86;82.38;101632.78;4750085;30;20123;-68
2021/12/20 01:08:16;;;;;;;6.88;5.13;;;;;;;5.93;82.62;101634.44;4750855;30;20523;-68
2021/12/20 01:11:23;;;;;;;6.88;4.93;;;;;;;6.07;81.77;101626.47;4750759;30;20056;-68
2021/12/20 01:14:28;;;;;;;8.85;5.20;;;;;;;6.14;81.48;101633.25;4756982;30;20054;-68
2021/12/20 01:17:31;;;;;;;6.97;4.50;;;;;;;6.16;81.07;101631.50;4768522;30;20043;-68
2021/12/20 01:20:36;;;;;;;5.90;3.75;;;;;;;6.15;80.99;101634.97;4768473;30;20105;-68
2021/12/20 01:23:39;;;;;;;6.07;3.55;;;;;;;6.19;81.02;101634.06;4768460;30;20169;-68
2021/12/20 01:26:43;;;;;;;9.32;4.35;;;;;;;6.23;80.14;101630.53;4768326;30;20475;-69
2021/12/20 01:29:46;;;;;;;;;;;;;;;5.98;80.90;101629.19;4768287;30;20132;-68
2021/12/20 01:32:50;;;;;;;12.15;5.70;;;;;;;5.99;80.59;101628.31;4767955;30;19972;-68
2021/12/20 01:35:56;;;;;;;18.23;10.95;;;;;;;5.86;81.13;101631.94;4770620;30;20046;-68
2021/12/20 01:38:59;;;;;;;8.90;6.28;;;;;;;5.89;81.23;101632.75;4770686;30;20054;-68
2021/12/20 01:42:04;;;;;;;;;;;;;;;6.04;80.72;101636.88;4772215;30;20121;-68
2021/12/20 01:45:14;;;;;;;22.80;15.10;;;;;;;5.96;81.15;101626.59;4771183;30;19924;-68
2021/12/20 01:48:20;;;;;;;17.52;10.65;;;;;;;6.12;80.54;101634.16;4770430;30;20422;-68
2021/12/20 01:51:47;;;;;;;16.30;9.32;;;;;;;6.09;80.87;101635.06;4771409;30;20053;-68
2021/12/20 01:54:50;;;;;;;10.05;4.43;;;;;;;6.00;80.51;101630.03;4770890;30;20430;-68
2021/12/20 01:57:53;;;;;;;;;;;;;;;5.92;80.44;101626.66;4771508;30;20184;-68
2021/12/20 02:04:12;;;;;;;19.25;12.32;;;;;;;5.96;81.55;101624.00;4771066;30;20054;-68
2021/12/20 02:07:34;;;;;;;12.43;7.03;;;;;;;5.94;81.28;101617.16;4770847;30;20074;-68
2021/12/20 02:10:38;;;;;;;8.88;3.70;;;;;;;5.86;81.01;101631.94;4771018;30;20137;-68
2021/12/20 02:13:41;;;;;;;7.18;3.70;;;;;;;5.93;81.08;101629.25;4770488;30;20042;-68
2021/12/20 02:16:45;;;;;;;9.20;4.70;;;;;;;5.97;81.18;101624.91;4770970;30;20521;-68
2021/12/20 02:19:49;;;;;;;10.02;3.70;;;;;;;6.04;81.26;101631.69;4770768;30;20472;-68
2021/12/20 02:22:57;;;;;;;7.30;2.97;;;;;;;6.08;80.54;101628.16;4781837;30;20086;-68
2021/12/20 02:26:00;;;;;;;7.68;3.88;;;;;;;6.02;80.81;101630.84;4788666;30;20640;-68
2021/12/20 02:29:07;;;;;;;;;;;;;;;6.08;80.36;101627.31;4788900;30;20055;-68
2021/12/20 02:38:59;;;;;;;10.35;4.50;;;;;;;6.00;81.42;101627.44;4770498;30;20051;-68
2021/12/20 02:42:03;;;;;;;6.97;4.28;;;;;;;6.07;81.15;101631.66;4770304;30;20054;-68
2021/12/20 02:45:16;;;;;;;;;;;;;;;6.06;81.16;101629.91;4770882;30;20458;-68
2021/12/20 02:48:19;;;;;;;7.10;3.45;;;;;;;5.88;82.29;101625.00;4769689;30;20030;-68
2021/12/20 02:51:26;;;;;;;10.07;3.17;;;;;;;5.90;81.72;101615.44;4438806;29;9999780;-68
2021/12/20 02:54:30;;;;;;;9.45;3.40;;;;;;;5.78;81.31;101622.53;4766656;30;20063;-68
2021/12/20 02:57:36;;;;;;;5.70;2.53;;;;;;;5.56;82.74;101623.72;4767259;30;20053;-68
2021/12/20 03:00:39;;;;;;;9.13;3.38;;;;;;;5.59;82.38;101628.88;4766880;30;20078;-68
2021/12/20 03:03:43;;;;;;;;;;;;;;;5.71;82.05;101617.44;4766830;30;20143;-68
2021/12/20 03:06:48;;;;;;;;;;;;;;;5.39;82.79;101625.69;4767087;30;19984;-68
2021/12/20 03:09:59;;;;;;;5.03;3.00;;;;;;;5.55;82.93;101633.25;4766689;30;19954;-68
2021/12/20 03:13:02;;;;;;;5.78;2.97;;;;;;;5.70;82.81;101628.72;4766785;30;20510;-68
2021/12/20 03:16:06;;;;;;;5.80;3.55;;;;;;;5.78;81.92;101629.47;4765762;30;20219;-68
2021/12/20 03:19:09;;;;;;;;;;;;;;;5.88;81.18;101619.81;4767193;30;20058;-68
2021/12/20 03:22:13;;;;;;;6.20;3.50;;;;;;;5.93;81.26;101618.00;4766593;30;19928;-68
2021/12/20 03:25:17;;;;;;;8.00;3.92;;;;;;;5.89;81.83;101617.19;4766297;30;20557;-68
2021/12/20 03:28:21;;;;;;;5.90;3.35;;;;;;;5.77;81.75;101615.63;4766407;30;20085;-68
2021/12/20 03:31:24;;;;;;;;;;;;;;;5.27;84.61;101621.53;4767147;30;20078;-68
2021/12/20 03:34:28;;;;;;;10.60;4.10;;;;;;;5.52;83.47;101622.91;4766410;30;20299;-68
2021/12/20 03:37:31;;;;;;;8.20;3.65;;;;;;;5.69;82.73;101620.06;4766534;30;20050;-68
2021/12/20 03:40:34;;;;;;;;;;;;;;;5.78;82.56;101614.75;4766466;30;20058;-68
2021/12/20 03:43:38;;;;;;;6.70;3.63;;;;;;;5.83;82.58;101618.13;4766420;30;19944;-68
2021/12/20 03:46:41;;;;;;;9.00;4.32;;;;;;;5.65;83.18;101618.41;4766199;30;20443;-68
2021/12/20 03:49:44;;;;;;;;;;;;;;;5.71;82.89;101620.91;4766434;30;20063;-68
2021/12/20 03:52:48;;;;;;;8.43;3.88;;;;;;;5.53;83.43;101616.00;4765824;30;19971;-68
2021/12/20 03:55:51;;;;;;;8.18;3.90;;;;;;;5.69;82.87;101620.06;4765667;30;20601;-68
2021/12/20 03:58:54;;;;;;;7.80;3.83;;;;;;;5.84;82.53;101621.59;4748468;30;20456;-68
2021/12/20 04:01:59;;;;;;;6.55;3.03;;;;;;;5.74;83.05;101615.69;4748256;30;20555;-68
2021/12/20 04:05:02;;;;;;;6.53;3.30;;;;;;;5.82;82.30;101616.41;4747565;30;20099;-68
2021/12/20 04:08:06;;;;;;;;;;;;;;;5.62;83.06;101618.47;4747338;30;20063;-68
2021/12/20 04:11:09;;;;;;;7.72;3.72;;;;;;;5.75;82.76;101619.13;4748109;30;19957;-68
2021/12/20 04:14:12;;;;;;;14.00;3.88;;;;;;;5.81;82.81;101612.13;4748078;30;20561;-68
2021/12/20 04:17:15;;;;;;;;;;;;;;;5.89;82.70;101613.72;4748218;30;20113;-68
2021/12/20 04:20:18;;;;;;;5.28;3.53;;;;;;;5.85;82.74;101625.03;4747939;30;19925;-68
2021/12/20 04:23:22;;;;;;;7.30;3.85;;;;;;;5.86;82.84;101627.59;4747769;30;20058;-68
2021/12/20 04:26:25;;;;;;;6.88;3.38;;;;;;;5.87;82.76;101613.75;4747482;30;20105;-68
2021/12/20 04:29:29;;;;;;;4.53;3.70;;;;;;;5.78;83.09;101621.69;4748069;30;20055;-68
2021/12/20 04:32:33;;;;;;;7.13;3.30;;;;;;;5.52;84.25;101622.91;4747902;30;20116;-68
2021/12/20 04:35:36;;;;;;;11.85;3.88;;;;;;;5.67;83.86;101627.00;4748074;30;20126;-68
2021/12/20 04:38:40;;;;;;;8.65;3.75;;;;;;;5.68;83.59;101622.69;4747175;30;20125;-68
2021/12/20 04:41:44;;;;;;;7.18;3.53;;;;;;;5.67;83.23;101627.00;4747606;30;20059;-68
2021/12/20 04:44:47;;;;;;;8.57;5.75;;;;;;;5.65;82.51;101627.91;4747952;30;20055;-68
2021/12/20 04:47:51;;;;;;;;;;;;;;;5.73;82.41;101626.94;4747913;30;20195;-68
2021/12/20 04:50:54;;;;;;;7.20;3.55;;;;;;;5.64;82.77;101623.59;4750409;30;19929;-68
2021/12/20 04:53:57;;;;;;;;;;;;;;;5.55;83.44;101622.00;4765131;30;20054;-68
2021/12/20 04:57:00;;;;;;;8.68;3.78;;;;;;;5.68;83.57;101628.75;4764625;30;19928;-68
2021/12/20 05:00:09;;;;;;;6.88;3.92;;;;;;;5.74;82.31;101630.38;4764750;30;20068;-68
2021/12/20 05:03:12;;;;;;;8.13;3.70;;;;;;;5.64;81.41;101628.78;4765218;30;20093;-68
2021/12/20 05:06:16;;;;;;;;;;;;;;;5.65;81.27;101628.78;4765366;30;20070;-68
2021/12/20 05:09:19;;;;;;;13.38;6.45;;;;;;;5.65;82.11;101633.09;4765919;30;19979;-68
2021/12/20 05:12:23;;;;;;;12.63;6.13;;;;;;;5.69;81.74;101640.84;4769109;30;20075;-68
2021/12/20 05:15:27;;;;;;;10.52;4.00;;;;;;;5.63;82.76;101640.06;4768538;30;20058;-68
2021/12/20 05:18:30;;;;;;;10.07;4.10;;;;;;;5.57;82.62;101643.59;4768900;30;20062;-68
2021/12/20 05:21:34;;;;;;;9.50;3.63;;;;;;;5.59;82.06;101644.44;4770230;30;20108;-68
2021/12/20 05:24:38;;;;;;;;;;;;;;;5.48;82.62;101643.72;4443089;30;10000936;-68
2021/12/20 05:27:41;;;;;;;8.02;3.58;;;;;;;5.51;83.32;101641.09;4759187;30;19929;-68
2021/12/20 05:30:49;;;;;;;6.88;3.42;;;;;;;5.58;83.16;101650.50;4766967;30;20143;-69
2021/12/20 05:33:52;;;;;;;7.97;4.75;;;;;;;5.47;83.04;101657.56;4767016;30;20099;-68
2021/12/20 05:36:56;;;;;;;11.82;4.47;;;;;;;5.55;82.90;101655.72;4769785;30;20513;-68
2021/12/20 05:39:59;;;;;;;8.63;3.22;;;;;;;5.44;82.13;101655.88;4785978;30;20062;-68
2021/12/20 05:43:04;;;;;;;27.05;13.60;;;;;;;5.58;82.26;101645.31;4776293;30;20050;-68
2021/12/20 05:46:07;;;;;;;25.80;13.07;;;;;;;5.50;82.76;101655.78;4766962;30;20053;-68
2021/12/20 05:49:10;;;;;;;14.27;6.55;;;;;;;5.52;82.18;101654.06;4767442;30;20062;-68
2021/12/20 05:52:14;;;;;;;12.15;5.72;;;;;;;5.53;81.90;101653.16;4786228;29;20054;-68
2021/12/20 05:55:17;;;;;;;;;;;;;;;5.59;81.74;101658.28;4786338;30;20066;-68
2021/12/20 05:58:20;;;;;;;10.75;4.70;;;;;;;5.55;82.04;101661.78;4785844;30;19923;-68
2021/12/20 06:01:24;;;;;;;;;;;;;;;5.57;82.16;101665.22;4785598;30;20046;-68
2021/12/20 06:04:27;;;;;;;11.88;3.00;;;;;;;5.60;80.98;101672.09;4784190;30;19924;-68
2021/12/20 06:07:30;;;;;;;9.48;3.95;;;;;;;5.51;81.42;101674.81;4766735;30;20058;-69
2021/12/20 06:10:35;;;;;;;;;;;;;;;5.40;81.63;101674.09;4768599;30;20138;-68
2021/12/20 06:13:38;;;;;;;9.50;4.10;;;;;;;5.46;81.00;101668.84;4767739;30;19975;-68
2021/12/20 06:16:42;;;;;;;8.32;2.83;;;;;;;5.48;80.89;101675.69;4766047;30;20466;-68
2021/12/20 06:19:45;;;;;;;;;;;;;;;5.47;80.62;101673.13;4766104;30;20063;-68
2021/12/20 06:22:48;;;;;;;8.90;2.90;;;;;;;5.27;81.28;101670.81;4764785;30;19936;-68
2021/12/20 06:25:52;;;;;;;15.38;3.50;;;;;;;5.36;80.90;101681.06;4766641;30;20093;-68
2021/12/20 06:28:55;;;;;;;;;;;;;;;5.35;81.96;101692.28;4767356;30;20058;-68
2021/12/20 06:31:58;;;;;;;14.53;3.87;;;;;;;5.31;82.46;101683.69;4766387;30;19975;-68
2021/12/20 06:35:03;;;;;;;12.80;3.50;;;;;;;5.35;81.97;101692.28;4765320;30;20146;-68
2021/12/20 06:38:08;;;;;;;14.02;3.63;;;;;;;5.40;81.67;101698.31;4775553;30;20112;-68
2021/12/20 06:41:11;;;;;;;9.07;4.07;;;;;;;5.27;82.85;101705.38;4766316;30;20052;-68
2021/12/20 06:44:15;;;;;;;9.60;3.38;;;;;;;5.19;81.17;101701.97;4766915;30;20586;-68
2021/12/20 06:47:19;;;;;;;13.15;4.57;;;;;;;5.11;80.08;101702.09;4766212;30;20144;-68
2021/12/20 06:50:23;;;;;;;15.23;3.05;;;;;;;4.85;79.42;101717.03;4770839;30;20046;-68
2021/12/20 06:53:27;;;;;;;;;;;;;;;4.85;80.34;101722.19;4767226;30;20526;-68
2021/12/20 06:56:30;;;;;;;15.95;2.90;;;;;;;4.79;79.48;101717.97;4765817;30;19925;-68
2021/12/20 06:59:34;;;;;;;9.88;2.67;;;;;;;4.63;79.25;101724.16;4765753;30;20123;-68
2021/12/20 07:02:38;;;;;;;11.32;3.05;;;;;;;4.66;80.14;101722.38;4766342;30;20109;-67
2021/12/20 07:05:41;;;;;;;;;;;;;;;4.66;81.75;101732.75;4766580;30;20132;-67
2021/12/20 07:08:44;;;;;;;13.05;3.95;;;;;;;4.59;82.03;101731.06;4765647;30;20309;-68
2021/12/20 07:11:48;;;;;;;;;;;;;;;4.70;81.88;101736.19;4766017;30;20105;-67
2021/12/20 07:14:51;;;;;;;9.63;3.17;;;;;;;4.87;80.80;101747.25;4765722;30;19979;-68
2021/12/20 07:17:54;;;;;;;12.45;3.58;;;;;;;4.94;80.37;101742.84;4765217;30;20513;-68
2021/12/20 07:20:58;;;;;;;;;;;;;;;4.92;80.31;101743.75;4766054;30;20112;-68
2021/12/20 07:24:01;;;;;;;13.23;4.80;;;;;;;4.69;81.84;101744.84;4765296;30;19940;-68
2021/12/20 07:27:07;;;;;;;;;;;;;;;4.62;81.79;101746.59;4764655;30;20062;-68
2021/12/20 07:30:10;;;;;;;12.60;3.88;;;;;;;4.52;82.64;101741.50;4765178;30;19924;-69
2021/12/20 07:33:15;;;;;;;13.70;4.43;;;;;;;4.58;82.44;101749.22;4781022;29;20101;-68
2021/12/20 07:36:21;;;;;;;12.88;3.17;;;;;;;4.51;81.31;101747.56;4781196;29;20073;-68
2021/12/20 07:39:24;;;;;;;11.70;3.30;;;;;;;4.46;80.81;101747.56;4783490;30;20054;-68
2021/12/20 07:42:27;;;;;;;;;;;;;;;4.46;80.10;101757.94;4783043;30;20077;-68
2021/12/20 07:45:32;;;;;;;12.25;3.10;;;;;;;4.48;80.06;101747.59;4790294;29;19924;-68
2021/12/20 07:48:35;;;;;;;10.43;3.97;;;;;;;4.37;81.36;101761.47;4764288;30;20541;-68
2021/12/20 07:51:39;;;;;;;;;;;;;;;4.43;81.48;101765.72;4765160;30;20101;-68
2021/12/20 07:54:42;;;;;;;11.95;3.45;;;;;;;4.48;80.70;101760.53;4765588;30;20167;-68
2021/12/20 07:57:45;;;;;;;;;;;;;;;4.20;81.72;101774.50;4766206;30;20175;-68
2021/12/20 08:00:49;;;;;;;10.95;3.38;;;;;;;4.07;82.14;101778.03;4764145;30;19974;-68
2021/12/20 08:03:53;;;;;;;8.35;3.00;;;;;;;4.08;82.28;101773.72;4764648;30;20103;-68
2021/12/20 08:06:56;;;;;;;13.18;3.50;;;;;;;4.09;81.60;101780.63;4765526;30;20116;-68
2021/12/20 08:10:00;;;;;;;11.93;3.55;;;;;;;4.12;81.94;101785.78;4768793;30;20064;-68
2021/12/20 08:13:03;;;;;;;12.68;4.32;;;;;;;4.11;81.27;101787.50;4769122;30;20100;-68
2021/12/20 08:16:07;;;;;;;13.50;3.63;;;;;;;3.96;81.34;101783.28;4768844;30;20105;-68
2021/12/20 08:19:10;;;;;;;18.75;3.85;;;;;;;3.85;81.84;101795.38;4768032;30;20104;-68
2021/12/20 08:22:13;;;;;;;12.23;3.08;;;;;;;3.86;81.65;101798.84;4769122;30;20104;-68
2021/12/20 08:25:18;;;;;;;8.82;2.95;;;;;;;3.84;81.83;101796.28;4768885;30;20112;-68
2021/12/20 08:28:21;;;;;;;8.68;2.78;;;;;;;3.66;82.69;101791.16;4768831;30;20042;-68
2021/12/20 08:31:25;;;;;;;12.20;2.67;;;;;;;3.58;82.66;101793.78;4768796;30;20067;-68
2021/12/20 08:34:30;;;;;;;12.80;3.20;;;;;;;3.72;82.44;101801.47;4768939;30;20057;-67
2021/12/20 08:37:34;;;;;;;9.27;3.03;;;;;;;3.63;81.92;101801.50;4768795;30;20406;-68
2021/12/20 08:40:37;;;;;;;7.97;3.03;;;;;;;3.50;82.57;101809.31;4769256;30;20130;-68
2021/12/20 08:43:41;;;;;;;12.40;3.45;;;;;;;3.60;82.33;101807.53;4768609;30;20054;-68
2021/12/20 08:46:44;;;;;;;10.30;2.97;;;;;;;3.59;82.48;101811.00;4772952;30;20070;-68
2021/12/20 08:49:48;;;;;;;9.50;3.10;;;;;;;3.65;82.36;101815.31;4772013;30;20109;-68
2021/12/20 08:52:51;;;;;;;8.95;2.80;;;;;;;3.45;82.46;101818.81;4772542;30;20058;-68
2021/12/20 08:55:56;;;;;;;12.88;3.33;;;;;;;3.33;83.11;101816.25;4768739;30;20435;-68
2021/12/20 08:58:59;;;;;;;10.27;5.07;;;;;;;3.45;83.07;101818.81;4768101;30;20055;-68
2021/12/20 09:02:06;;;;;;;13.00;3.75;;;;;;;3.56;82.66;101813.59;4768524;30;20123;-68
2021/12/20 09:05:10;;;;;;;10.05;3.50;;;;;;;3.57;82.33;101817.91;4750285;30;20133;-68
2021/12/20 09:08:15;;;;;;;14.85;3.63;;;;;;;3.50;82.62;101821.38;4749812;30;20426;-68
2021/12/20 09:11:18;;;;;;;7.47;3.03;;;;;;;3.57;82.26;101822.22;4749797;30;20477;-69
2021/12/20 09:14:21;;;;;;;12.18;5.25;;;;;;;3.62;82.53;101825.66;4749652;30;20057;-68
2021/12/20 09:17:24;;;;;;;13.15;4.38;;;;;;;3.53;82.48;101825.69;4764685;30;20077;-68
2021/12/20 09:20:29;;;;;;;13.27;4.70;;;;;;;3.56;82.57;101831.72;4750314;30;20143;-68
2021/12/20 09:23:35;;;;;;;15.18;5.85;;;;;;;3.67;82.46;101839.44;4750085;30;20570;-68
2021/12/20 09:26:38;;;;;;;18.23;7.55;;;;;;;3.77;81.22;101840.28;4749742;30;20054;-68
2021/12/20 09:29:42;;;;;;;;;;;;;;;3.68;81.04;101841.16;4749812;30;20078;-68
2021/12/20 09:32:45;;;;;;;29.73;12.57;;;;;;;3.60;79.89;101843.75;4760597;30;19986;-68
2021/12/20 09:35:50;;;;;;;;;;;;;;;3.65;80.46;101851.53;4768426;30;20090;-68
2021/12/20 09:38:54;;;;;;;25.77;7.15;;;;;;;3.70;79.61;101854.94;4767543;30;20026;-68
2021/12/20 09:42:00;;;;;;;21.55;5.32;;;;;;;3.84;78.97;101847.16;4766033;30;20541;-68
2021/12/20 09:45:04;;;;;;;22.75;4.97;;;;;;;3.88;79.29;101849.72;4767423;30;20539;-68
2021/12/20 09:48:08;;;;;;;17.38;4.50;;;;;;;3.93;78.47;101862.66;4765581;30;20055;-69
2021/12/20 09:51:11;;;;;;;;;;;;;;;4.05;78.25;101861.72;4767078;30;20113;-68
2021/12/20 09:54:14;;;;;;;19.08;4.07;;;;;;;4.10;77.76;101857.41;4767170;30;19941;-71
2021/12/20 09:57:20;;;;;;;16.88;3.95;;;;;;;4.00;78.46;101853.13;4766328;30;20100;-68
2021/12/20 10:00:23;;;;;;;17.83;4.95;;;;;;;4.08;78.36;101851.38;4771062;30;20050;-68
2021/12/20 10:03:28;;;;;;;24.77;4.28;;;;;;;3.96;78.76;101863.50;4784245;30;20209;-68
2021/12/20 10:06:31;;;;;;;21.75;4.70;;;;;;;3.90;78.25;101855.75;4783883;30;20170;-68
2021/12/20 10:09:36;;;;;;;;;;;;;;;4.02;78.00;101861.75;4784702;30;20062;-69
2021/12/20 10:12:49;;;;;;;19.42;4.53;;;;;;;4.13;77.13;101860.84;4793443;29;20279;-68
2021/12/20 10:15:53;;;;;;;27.77;3.70;;;;;;;4.06;76.65;101858.28;4783458;30;20143;-70
2021/12/20 10:18:59;;;;;;;15.27;3.67;;;;;;;4.09;76.90;101855.69;4769680;30;20054;-68
2021/12/20 10:22:21;;;;;;;21.25;4.13;;;;;;;4.01;77.22;101853.13;4766781;30;20063;-68
2021/12/20 10:25:28;;;;;;;24.17;3.85;;;;;;;4.09;76.36;101847.94;4765458;30;20054;-68
2021/12/20 10:28:34;;;;;;;17.95;4.43;;;;;;;4.06;76.53;101850.53;4766067;30;20407;-69
2021/12/20 10:31:38;;;;;;;20.38;7.25;;;;;;;4.18;76.81;101847.91;4765918;30;20118;-69
2021/12/20 10:34:41;;;;;;;;;;;;;;;4.22;75.28;101840.97;4766837;30;20060;-69
2021/12/20 10:37:45;;;;;;;19.07;4.17;;;;;;;4.25;75.51;101839.22;4766949;30;19924;-68
2021/12/20 10:41:05;;;;;;;20.35;4.38;;;;;;;4.30;75.56;101834.88;4765211;30;20416;-68
2021/12/20 10:44:24;;;;;;;21.98;3.95;;;;;;;4.38;75.52;101835.69;4770509;30;20542;-68
2021/12/20 10:47:28;;;;;;;22.23;5.10;;;;;;;4.13;74.46;101834.09;4763612;30;20059;-68
2021/12/20 10:50:40;;;;;;;21.25;3.90;;;;;;;4.24;74.82;101840.06;4765792;30;20047;-68
2021/12/20 10:53:54;;;;;;;14.93;3.30;;;;;;;4.30;74.84;101831.41;4758072;30;20070;-68
2021/12/20 10:57:00;;;;;;;21.73;3.67;;;;;;;4.31;74.42;101822.81;4783123;30;20108;-68
2021/12/20 11:00:16;;;;;;;20.92;5.35;;;;;;;4.34;74.20;101834.00;4783511;30;20104;-68
2021/12/20 11:03:26;;;;;;;15.38;3.55;;;;;;;4.37;73.70;101831.41;4768166;30;20142;-68
2021/12/20 11:06:44;;;;;;;19.85;4.15;;;;;;;4.33;73.73;101826.22;4765622;30;20063;-68
2021/12/20 11:10:00;;;;;;;18.60;4.40;;;;;;;4.26;74.18;101827.13;4764113;30;20679;-68
2021/12/20 11:13:15;;;;;;;15.38;3.78;;;;;;;4.30;72.67;101821.91;4764364;30;20134;-68
2021/12/20 11:16:22;;;;;;;21.83;4.38;;;;;;;4.33;71.77;101827.06;4765566;30;20062;-68
2021/12/20 11:19:42;;;;;;;14.63;3.83;;;;;;;4.39;71.76;101821.88;4765348;30;20095;-68
2021/12/20 11:22:46;;;;;;;13.07;3.25;;;;;;;4.25;70.95;101818.50;4765756;30;20050;-68
2021/12/20 11:25:49;;;;;;;17.65;2.80;;;;;;;4.32;71.46;101821.91;4765896;30;20116;-68
2021/12/20 11:28:52;;;;;;;;;;;;;;;4.39;70.76;101824.44;4772456;30;20325;-68
2021/12/20 11:31:57;;;;;;;14.13;2.85;;;;;;;4.43;70.53;101812.34;4782988;30;19928;-68
2021/12/20 11:35:00;;;;;;;19.23;3.92;;;;;;;4.46;70.02;101811.47;4782726;30;20130;-68
2021/12/20 11:38:03;;;;;;;;;;;;;;;4.51;69.45;101807.13;4783396;30;20161;-68
2021/12/20 11:41:06;;;;;;;19.35;2.92;;;;;;;4.54;68.34;101802.78;4783443;30;19943;-68
2021/12/20 11:44:17;;;;;;;13.30;3.00;;;;;;;4.54;68.42;101800.19;4786892;30;20050;-68
2021/12/20 11:47:49;;;;;;;13.77;2.42;;;;;;;4.45;69.31;101797.66;4777588;30;20104;-68
2021/12/20 11:50:56;;;;;;;17.02;3.03;;;;;;;4.29;68.65;101807.25;4769176;30;20146;-68
2021/12/20 11:53:59;;;;;;;18.52;3.85;;;;;;;4.26;70.13;101804.69;4768830;30;20189;-68
2021/12/20 11:57:03;;;;;;;14.45;3.17;;;;;;;4.37;69.29;101800.31;4769278;30;20247;-68
2021/12/20 12:00:22;;;;;;;19.10;3.17;;;;;;;4.32;68.10;101799.47;4768444;30;20105;-68
2021/12/20 12:03:26;;;;;;;11.63;2.78;;;;;;;4.45;67.44;101807.16;4769180;30;20747;-68
2021/12/20 12:06:31;;;;;;;12.52;2.63;;;;;;;4.44;67.06;101806.31;4768763;30;20065;-68
2021/12/20 12:10:15;;;;;;;13.23;3.08;;;;;;;4.42;67.68;101795.94;4769530;30;20105;-68
2021/12/20 12:13:19;;;;;;;12.63;3.75;;;;;;;4.49;68.29;101796.78;4769257;30;20104;-68
2021/12/20 12:16:31;;;;;;;12.98;2.75;;;;;;;4.56;67.49;101798.47;4768411;30;20073;-68
2021/12/20 12:19:35;;;;;;;13.27;2.70;;;;;;;4.56;67.17;101787.22;4767716;30;20064;-68
2021/12/20 12:22:43;;;;;;;16.63;3.22;;;;;;;4.46;68.73;101788.16;4761092;30;20070;-68
2021/12/20 12:25:51;;;;;;;12.77;2.58;;;;;;;4.44;66.11;101788.19;4763070;30;20049;-68
2021/12/20 12:28:56;;;;;;;9.90;2.00;;;;;;;4.41;65.72;101783.88;4779377;30;20045;-68
2021/12/20 12:32:01;;;;;;;12.13;2.65;;;;;;;4.50;65.40;101776.91;4781411;30;20083;-68
2021/12/20 12:35:05;;;;;;;13.70;2.45;;;;;;;4.50;65.35;101776.91;4780053;30;20053;-68
2021/12/20 12:38:11;;;;;;;;;;;;;;;4.55;65.57;101775.16;4781919;30;20054;-68
2021/12/20 12:41:22;;;;;;;12.60;2.88;;;;;;;4.51;64.68;101770.88;4781688;30;20001;-68
2021/12/20 12:44:33;;;;;;;10.23;2.53;;;;;;;4.50;64.45;101772.59;4782201;30;20579;-68
2021/12/20 12:47:36;;;;;;;7.97;2.50;;;;;;;4.49;63.48;101770.00;4769907;30;20124;-68
2021/12/20 12:50:40;;;;;;;;;;;;;;;4.52;64.06;101767.41;4783126;30;20120;-68
2021/12/20 12:53:45;;;;;;;13.43;3.67;;;;;;;4.53;64.46;101762.22;4782656;30;20528;-68
2021/12/20 12:56:48;;;;;;;7.93;1.90;;;;;;;4.55;63.22;101763.06;4763766;30;20082;-68
2021/12/20 12:59:56;;;;;;;;;;;;;;;4.54;63.71;101758.75;4764572;30;20423;-68
2021/12/20 13:03:10;;;;;;;10.00;2.30;;;;;;;4.55;64.02;101759.59;4773136;30;19967;-68
2021/12/20 13:06:19;;;;;;;9.35;2.17;;;;;;;4.57;64.38;101763.06;4781672;30;20070;-69
2021/12/20 13:09:32;;;;;;;8.40;2.20;;;;;;;4.54;64.05;101757.91;4782058;30;20108;-68
2021/12/20 13:16:00;;;;;;;9.25;3.17;;;;;;;4.32;65.10;101768.41;4782375;30;20522;-68
2021/12/20 13:19:05;;;;;;;13.02;3.72;;;;;;;4.28;66.02;101758.94;4768334;30;20436;-68
2021/12/20 13:22:08;;;;;;;12.80;4.80;;;;;;;4.28;66.33;101768.44;4768933;30;20067;-68
2021/12/20 13:25:11;;;;;;;;;;;;;;;4.30;65.70;101770.13;4769142;30;20101;-68
2021/12/20 13:28:17;;;;;;;11.65;3.53;;;;;;;4.17;64.85;101769.34;4768592;30;19929;-68
2021/12/20 13:31:22;;;;;;;8.88;3.75;;;;;;;4.25;64.24;101769.31;4769639;30;20455;-68
2021/12/20 13:34:26;;;;;;;9.32;2.50;;;;;;;4.33;64.11;101764.94;4767676;30;20169;-68
2021/12/20 13:37:31;;;;;;;9.50;2.35;;;;;;;4.39;63.60;101759.72;4767241;30;20166;-68
2021/12/20 13:40:49;;;;;;;7.10;2.35;;;;;;;4.33;62.66;101756.31;4767002;30;20111;-69
2021/12/20 13:43:59;;;;;;;8.90;2.97;;;;;;;4.41;63.20;101757.97;4767197;30;20059;-68
2021/12/20 13:47:06;;;;;;;7.95;2.38;;;;;;;4.33;63.64;101756.31;4766695;30;20082;-68
2021/12/20 13:50:17;;;;;;;10.88;4.28;;;;;;;4.33;63.02;101758.91;4765883;30;20556;-68
2021/12/20 13:53:30;;;;;;;14.52;6.43;;;;;;;4.15;63.60;101760.75;4766886;30;20051;-68
2021/12/20 13:56:34;;;;;;;12.95;6.35;;;;;;;4.18;64.79;101760.72;4767396;30;20086;-68
2021/12/20 13:59:39;;;;;;;;;;;;;;;4.24;64.54;101764.13;4767137;30;20054;-68
2021/12/20 14:02:44;;;;;;;12.15;6.55;;;;;;;4.15;64.87;101765.06;4765827;30;20007;-68
2021/12/20 14:05:47;;;;;;;11.75;4.85;;;;;;;4.24;63.68;101766.72;4766532;30;20598;-68
2021/12/20 14:09:22;;;;;;;9.90;3.95;;;;;;;4.12;63.14;101760.75;4766877;30;20051;-69
2021/12/20 14:12:36;;;;;;;6.90;1.83;;;;;;;4.02;64.23;101763.38;4767419;30;20070;-68
2021/12/20 14:15:45;;;;;;;6.53;2.00;;;;;;;4.07;64.25;101766.84;4769536;30;20531;-68
2021/12/20 14:18:49;;;;;;;10.13;2.60;;;;;;;4.12;64.84;101765.09;4770806;30;20050;-68
2021/12/20 14:21:59;;;;;;;8.60;2.53;;;;;;;4.07;64.50;101765.09;4770494;30;20117;-68
2021/12/20 14:25:07;;;;;;;10.13;3.28;;;;;;;3.93;65.04;101762.59;4770566;30;20049;-68
2021/12/20 14:28:14;;;;;;;10.23;5.03;;;;;;;3.94;65.16;101761.72;4770728;30;20046;-68
2021/12/20 14:31:41;;;;;;;11.60;4.68;;;;;;;3.87;65.27;101757.44;4770800;30;20108;-68
2021/12/20 14:34:44;;;;;;;14.93;4.78;;;;;;;3.84;64.76;101757.47;4770495;30;20101;-68
2021/12/20 14:37:47;;;;;;;;;;;;;;;3.82;66.07;101766.94;4771293;30;20102;-68
2021/12/20 14:40:52;;;;;;;10.00;5.22;;;;;;;3.71;67.34;101763.56;4770426;30;20029;-68
2021/12/20 14:44:00;;;;;;;23.75;8.68;;;;;;;3.74;66.62;101763.53;4787752;30;20058;-68
2021/12/20 14:47:10;;;;;;;20.48;12.38;;;;;;;3.60;67.26;101762.72;4768508;30;20062;-68
2021/12/20 14:50:25;;;;;;;16.45;9.05;;;;;;;3.63;67.90;101765.31;4773351;30;20209;-68
2021/12/20 14:53:28;;;;;;;13.65;5.90;;;;;;;3.66;67.81;101767.88;4770070;30;20465;-68
2021/12/20 14:56:32;;;;;;;11.80;5.32;;;;;;;3.55;68.36;101761.91;4769744;30;20054;-68